sensor_id;sensor_type;location;lat;lon;timestamp;temperature;humidity
1704;DHT22;849;48.780;9.216;2023-05-07T00:02:25;18.20;99.90
1704;DHT22;849;48.780;9.216;2023-05-07T00:04:50;18.20;99.90
1704;DHT22;849;48.780;9.216;2023-05-07T00:07:18;18.30;99.90
1704;DHT22;849;48.780;9.216;2023-05-07T00:09:43;18.30;99.90
1704;DHT22;849;48.780;9.216;2023-05-07T00:12:09;18.30;99.90
1704;DHT22;849;48.780;9.216;2023-05-07T00:14:35;18.30;99.90
1704;DHT22;849;48.780;9.216;2023-05-07T00:17:01;18.30;99.90
1704;DHT22;849;48.780;9.216;2023-05-07T00:19:27;18.30;99.90
1704;DHT22;849;48.780;9.216;2023-05-07T00:21:52;18.30;99.90
1704;DHT22;849;48.780;9.216;2023-05-07T00:24:22;18.20;99.90
1704;DHT22;849;48.780;9.216;2023-05-07T00:26:48;18.20;99.90
1704;DHT22;849;48.780;9.216;2023-05-07T00:29:13;18.10;99.90
1704;DHT22;849;48.780;9.216;2023-05-07T00:31:39;18.00;99.90
1704;DHT22;849;48.780;9.216;2023-05-07T00:34:05;18.10;99.90
1704;DHT22;849;48.780;9.216;2023-05-07T00:36:31;18.10;99.90
1704;DHT22;849;48.780;9.216;2023-05-07T00:38:59;18.00;99.90
1704;DHT22;849;48.780;9.216;2023-05-07T00:41:25;18.00;99.90
1704;DHT22;849;48.780;9.216;2023-05-07T00:43:51;18.10;99.90
1704;DHT22;849;48.780;9.216;2023-05-07T00:46:18;18.00;99.90
1704;DHT22;849;48.780;9.216;2023-05-07T00:48:45;17.90;99.90
1704;DHT22;849;48.780;9.216;2023-05-07T00:51:11;17.80;99.90
1704;DHT22;849;48.780;9.216;2023-05-07T00:53:37;17.80;99.90
1704;DHT22;849;48.780;9.216;2023-05-07T00:56:03;17.80;99.90
1704;DHT22;849;48.780;9.216;2023-05-07T00:58:29;17.80;99.90
1704;DHT22;849;48.780;9.216;2023-05-07T01:00:55;17.80;99.90
1704;DHT22;849;48.780;9.216;2023-05-07T01:03:21;17.70;99.90
1704;DHT22;849;48.780;9.216;2023-05-07T01:05:47;17.70;99.90
1704;DHT22;849;48.780;9.216;2023-05-07T01:08:15;17.70;99.90
1704;DHT22;849;48.780;9.216;2023-05-07T01:10:41;17.60;99.90
1704;DHT22;849;48.780;9.216;2023-05-07T01:13:09;17.60;99.90
1704;DHT22;849;48.780;9.216;2023-05-07T01:15:36;17.60;99.90
1704;DHT22;849;48.780;9.216;2023-05-07T01:18:02;17.60;99.90
1704;DHT22;849;48.780;9.216;2023-05-07T01:20:28;17.60;99.90
1704;DHT22;849;48.780;9.216;2023-05-07T01:22:54;17.60;99.90
1704;DHT22;849;48.780;9.216;2023-05-07T01:25:20;17.50;99.90
1704;DHT22;849;48.780;9.216;2023-05-07T01:27:46;17.50;99.90
1704;DHT22;849;48.780;9.216;2023-05-07T01:30:12;17.40;99.90
1704;DHT22;849;48.780;9.216;2023-05-07T01:32:55;17.40;99.90
1704;DHT22;849;48.780;9.216;2023-05-07T01:35:26;17.40;99.90
1704;DHT22;849;48.780;9.216;2023-05-07T01:37:53;17.40;99.90
1704;DHT22;849;48.780;9.216;2023-05-07T01:40:19;17.30;99.90
1704;DHT22;849;48.780;9.216;2023-05-07T01:42:46;17.30;99.90
1704;DHT22;849;48.780;9.216;2023-05-07T01:45:13;17.20;99.90
1704;DHT22;849;48.780;9.216;2023-05-07T01:47:39;17.30;99.90
1704;DHT22;849;48.780;9.216;2023-05-07T01:50:06;17.30;99.90
1704;DHT22;849;48.780;9.216;2023-05-07T01:52:34;17.30;99.90
1704;DHT22;849;48.780;9.216;2023-05-07T01:55:00;17.30;99.90
1704;DHT22;849;48.780;9.216;2023-05-07T01:57:25;17.30;99.90
1704;DHT22;849;48.780;9.216;2023-05-07T01:59:51;17.20;99.90
1704;DHT22;849;48.780;9.216;2023-05-07T02:02:17;17.20;99.90
1704;DHT22;849;48.780;9.216;2023-05-07T02:04:42;17.20;99.90
1704;DHT22;849;48.780;9.216;2023-05-07T02:07:08;17.30;99.90
1704;DHT22;849;48.780;9.216;2023-05-07T02:09:34;17.30;99.90
1704;DHT22;849;48.780;9.216;2023-05-07T02:11:59;17.30;99.90
1704;DHT22;849;48.780;9.216;2023-05-07T02:14:25;17.30;99.90
1704;DHT22;849;48.780;9.216;2023-05-07T02:16:51;17.20;99.90
1704;DHT22;849;48.780;9.216;2023-05-07T02:19:17;17.20;99.90
1704;DHT22;849;48.780;9.216;2023-05-07T02:21:43;17.20;99.90
1704;DHT22;849;48.780;9.216;2023-05-07T02:24:09;17.20;99.90
1704;DHT22;849;48.780;9.216;2023-05-07T02:26:35;17.10;99.90
1704;DHT22;849;48.780;9.216;2023-05-07T02:29:00;17.10;99.90
1704;DHT22;849;48.780;9.216;2023-05-07T02:31:26;17.10;99.90
1704;DHT22;849;48.780;9.216;2023-05-07T02:33:51;17.10;99.90
1704;DHT22;849;48.780;9.216;2023-05-07T02:36:17;17.10;99.90
1704;DHT22;849;48.780;9.216;2023-05-07T02:38:43;17.10;99.90
1704;DHT22;849;48.780;9.216;2023-05-07T02:41:08;17.00;99.90
1704;DHT22;849;48.780;9.216;2023-05-07T02:43:34;17.00;99.90
1704;DHT22;849;48.780;9.216;2023-05-07T02:46:04;17.00;99.90
1704;DHT22;849;48.780;9.216;2023-05-07T02:48:30;16.90;99.90
1704;DHT22;849;48.780;9.216;2023-05-07T02:50:56;17.00;99.90
1704;DHT22;849;48.780;9.216;2023-05-07T02:53:21;16.90;99.90
1704;DHT22;849;48.780;9.216;2023-05-07T02:55:47;16.90;99.90
1704;DHT22;849;48.780;9.216;2023-05-07T02:58:13;16.90;99.90
1704;DHT22;849;48.780;9.216;2023-05-07T03:00:38;16.80;99.90
1704;DHT22;849;48.780;9.216;2023-05-07T03:03:04;16.80;99.90
1704;DHT22;849;48.780;9.216;2023-05-07T03:05:29;16.80;99.90
1704;DHT22;849;48.780;9.216;2023-05-07T03:07:55;16.80;99.90
1704;DHT22;849;48.780;9.216;2023-05-07T03:10:22;16.80;99.90
1704;DHT22;849;48.780;9.216;2023-05-07T03:12:48;16.80;99.90
1704;DHT22;849;48.780;9.216;2023-05-07T03:15:13;16.80;99.90
1704;DHT22;849;48.780;9.216;2023-05-07T03:17:39;16.80;99.90
1704;DHT22;849;48.780;9.216;2023-05-07T03:20:05;16.80;99.90
1704;DHT22;849;48.780;9.216;2023-05-07T03:22:32;16.70;99.90
1704;DHT22;849;48.780;9.216;2023-05-07T03:24:57;16.70;99.90
1704;DHT22;849;48.780;9.216;2023-05-07T03:27:23;16.70;99.90
1704;DHT22;849;48.780;9.216;2023-05-07T03:29:49;16.70;99.90
1704;DHT22;849;48.780;9.216;2023-05-07T03:32:15;16.70;99.90
1704;DHT22;849;48.780;9.216;2023-05-07T03:34:40;16.70;99.90
1704;DHT22;849;48.780;9.216;2023-05-07T03:37:06;16.60;99.90
1704;DHT22;849;48.780;9.216;2023-05-07T03:39:32;16.60;99.90
1704;DHT22;849;48.780;9.216;2023-05-07T03:41:58;16.50;99.90
1704;DHT22;849;48.780;9.216;2023-05-07T03:44:23;16.50;99.90
1704;DHT22;849;48.780;9.216;2023-05-07T03:46:49;16.50;99.90
1704;DHT22;849;48.780;9.216;2023-05-07T03:49:15;16.50;99.90
1704;DHT22;849;48.780;9.216;2023-05-07T03:51:40;16.50;99.90
1704;DHT22;849;48.780;9.216;2023-05-07T03:54:07;16.50;99.90
1704;DHT22;849;48.780;9.216;2023-05-07T03:56:32;16.50;99.90
1704;DHT22;849;48.780;9.216;2023-05-07T03:58:58;16.40;99.90
1704;DHT22;849;48.780;9.216;2023-05-07T04:01:23;16.40;99.90
1704;DHT22;849;48.780;9.216;2023-05-07T04:03:49;16.40;99.90
1704;DHT22;849;48.780;9.216;2023-05-07T04:06:16;16.30;99.90
1704;DHT22;849;48.780;9.216;2023-05-07T04:08:42;16.30;99.90
1704;DHT22;849;48.780;9.216;2023-05-07T04:11:08;16.30;99.90
1704;DHT22;849;48.780;9.216;2023-05-07T04:13:34;16.30;99.90
1704;DHT22;849;48.780;9.216;2023-05-07T04:16:02;16.30;99.90
1704;DHT22;849;48.780;9.216;2023-05-07T04:18:28;16.30;99.90
1704;DHT22;849;48.780;9.216;2023-05-07T04:20:53;16.30;99.90
1704;DHT22;849;48.780;9.216;2023-05-07T04:23:19;16.20;99.90
1704;DHT22;849;48.780;9.216;2023-05-07T04:25:45;16.30;99.90
1704;DHT22;849;48.780;9.216;2023-05-07T04:28:11;16.30;99.90
1704;DHT22;849;48.780;9.216;2023-05-07T04:30:37;16.30;99.90
1704;DHT22;849;48.780;9.216;2023-05-07T04:33:02;16.20;99.90
1704;DHT22;849;48.780;9.216;2023-05-07T04:35:28;16.30;99.90
1704;DHT22;849;48.780;9.216;2023-05-07T04:37:54;16.30;99.90
1704;DHT22;849;48.780;9.216;2023-05-07T04:40:19;16.30;99.90
1704;DHT22;849;48.780;9.216;2023-05-07T04:42:45;16.30;99.90
1704;DHT22;849;48.780;9.216;2023-05-07T04:45:11;16.30;99.90
1704;DHT22;849;48.780;9.216;2023-05-07T04:47:38;16.40;99.90
1704;DHT22;849;48.780;9.216;2023-05-07T04:50:05;16.40;99.90
1704;DHT22;849;48.780;9.216;2023-05-07T04:52:30;16.40;99.90
1704;DHT22;849;48.780;9.216;2023-05-07T04:54:58;16.40;99.90
1704;DHT22;849;48.780;9.216;2023-05-07T04:57:24;16.40;99.90
1704;DHT22;849;48.780;9.216;2023-05-07T04:59:49;16.40;99.90
1704;DHT22;849;48.780;9.216;2023-05-07T05:02:15;16.40;99.90
1704;DHT22;849;48.780;9.216;2023-05-07T05:04:41;16.50;99.90
1704;DHT22;849;48.780;9.216;2023-05-07T05:07:07;16.50;99.90
1704;DHT22;849;48.780;9.216;2023-05-07T05:09:32;16.40;99.90
1704;DHT22;849;48.780;9.216;2023-05-07T05:11:59;16.50;99.90
1704;DHT22;849;48.780;9.216;2023-05-07T05:14:25;16.50;99.90
1704;DHT22;849;48.780;9.216;2023-05-07T05:16:50;16.50;99.90
1704;DHT22;849;48.780;9.216;2023-05-07T05:19:16;16.50;99.90
1704;DHT22;849;48.780;9.216;2023-05-07T05:21:41;16.50;99.90
1704;DHT22;849;48.780;9.216;2023-05-07T05:24:07;16.60;99.90
1704;DHT22;849;48.780;9.216;2023-05-07T05:26:33;16.60;99.90
1704;DHT22;849;48.780;9.216;2023-05-07T05:29:00;16.70;99.90
1704;DHT22;849;48.780;9.216;2023-05-07T05:31:26;16.80;99.90
1704;DHT22;849;48.780;9.216;2023-05-07T05:33:52;16.80;99.90
1704;DHT22;849;48.780;9.216;2023-05-07T05:36:17;16.90;99.90
1704;DHT22;849;48.780;9.216;2023-05-07T05:38:43;16.80;99.90
1704;DHT22;849;48.780;9.216;2023-05-07T05:41:10;16.90;99.90
1704;DHT22;849;48.780;9.216;2023-05-07T05:43:35;16.80;99.90
1704;DHT22;849;48.780;9.216;2023-05-07T05:46:01;16.90;99.90
1704;DHT22;849;48.780;9.216;2023-05-07T05:48:28;16.90;99.90
1704;DHT22;849;48.780;9.216;2023-05-07T05:50:54;16.90;99.90
1704;DHT22;849;48.780;9.216;2023-05-07T05:53:19;17.00;99.90
1704;DHT22;849;48.780;9.216;2023-05-07T05:55:45;17.00;99.90
1704;DHT22;849;48.780;9.216;2023-05-07T05:58:11;17.00;99.90
1704;DHT22;849;48.780;9.216;2023-05-07T06:00:37;17.10;99.90
1704;DHT22;849;48.780;9.216;2023-05-07T06:03:03;17.10;99.90
1704;DHT22;849;48.780;9.216;2023-05-07T06:05:28;17.20;99.90
1704;DHT22;849;48.780;9.216;2023-05-07T06:07:54;17.20;99.90
1704;DHT22;849;48.780;9.216;2023-05-07T06:10:19;17.30;99.90
1704;DHT22;849;48.780;9.216;2023-05-07T06:12:45;17.40;99.90
1704;DHT22;849;48.780;9.216;2023-05-07T06:15:11;17.50;99.90
1704;DHT22;849;48.780;9.216;2023-05-07T06:17:37;17.50;99.90
1704;DHT22;849;48.780;9.216;2023-05-07T06:20:03;17.60;99.90
1704;DHT22;849;48.780;9.216;2023-05-07T06:22:28;17.40;99.90
1704;DHT22;849;48.780;9.216;2023-05-07T06:24:54;17.40;99.90
1704;DHT22;849;48.780;9.216;2023-05-07T06:27:20;17.40;99.90
1704;DHT22;849;48.780;9.216;2023-05-07T06:29:48;17.40;99.90
1704;DHT22;849;48.780;9.216;2023-05-07T06:32:13;17.40;99.90
1704;DHT22;849;48.780;9.216;2023-05-07T06:34:40;17.50;99.90
1704;DHT22;849;48.780;9.216;2023-05-07T06:37:06;17.50;99.90
1704;DHT22;849;48.780;9.216;2023-05-07T06:39:32;17.50;99.90
1704;DHT22;849;48.780;9.216;2023-05-07T06:41:59;17.30;99.90
1704;DHT22;849;48.780;9.216;2023-05-07T06:44:25;17.20;99.90
1704;DHT22;849;48.780;9.216;2023-05-07T06:46:50;17.10;99.90
1704;DHT22;849;48.780;9.216;2023-05-07T06:49:16;17.10;99.90
1704;DHT22;849;48.780;9.216;2023-05-07T06:51:42;17.10;99.90
1704;DHT22;849;48.780;9.216;2023-05-07T06:54:07;17.10;99.90
1704;DHT22;849;48.780;9.216;2023-05-07T06:56:33;17.00;99.90
1704;DHT22;849;48.780;9.216;2023-05-07T06:59:01;16.90;99.90
1704;DHT22;849;48.780;9.216;2023-05-07T07:01:27;16.90;99.90
1704;DHT22;849;48.780;9.216;2023-05-07T07:03:53;16.80;99.90
1704;DHT22;849;48.780;9.216;2023-05-07T07:06:19;16.90;99.90
1704;DHT22;849;48.780;9.216;2023-05-07T07:08:44;16.90;99.90
1704;DHT22;849;48.780;9.216;2023-05-07T07:11:10;17.00;99.90
1704;DHT22;849;48.780;9.216;2023-05-07T07:13:37;17.00;99.90
1704;DHT22;849;48.780;9.216;2023-05-07T07:16:02;17.00;99.90
1704;DHT22;849;48.780;9.216;2023-05-07T07:18:28;17.10;99.90
1704;DHT22;849;48.780;9.216;2023-05-07T07:20:54;17.20;99.90
1704;DHT22;849;48.780;9.216;2023-05-07T07:23:20;17.40;99.90
1704;DHT22;849;48.780;9.216;2023-05-07T07:25:46;17.50;99.90
1704;DHT22;849;48.780;9.216;2023-05-07T07:28:11;17.60;99.90
1704;DHT22;849;48.780;9.216;2023-05-07T07:30:37;17.70;99.90
1704;DHT22;849;48.780;9.216;2023-05-07T07:33:03;17.80;99.90
1704;DHT22;849;48.780;9.216;2023-05-07T07:35:29;18.10;99.90
1704;DHT22;849;48.780;9.216;2023-05-07T07:37:55;18.20;99.90
1704;DHT22;849;48.780;9.216;2023-05-07T07:40:21;18.40;99.90
1704;DHT22;849;48.780;9.216;2023-05-07T07:42:47;18.40;99.90
1704;DHT22;849;48.780;9.216;2023-05-07T07:45:12;18.60;99.90
1704;DHT22;849;48.780;9.216;2023-05-07T07:47:39;18.60;99.90
1704;DHT22;849;48.780;9.216;2023-05-07T07:50:06;18.70;99.90
1704;DHT22;849;48.780;9.216;2023-05-07T07:52:34;18.80;99.90
1704;DHT22;849;48.780;9.216;2023-05-07T07:54:59;19.00;99.90
1704;DHT22;849;48.780;9.216;2023-05-07T07:57:25;19.10;99.90
1704;DHT22;849;48.780;9.216;2023-05-07T07:59:50;19.30;99.90
1704;DHT22;849;48.780;9.216;2023-05-07T08:02:17;19.40;99.90
1704;DHT22;849;48.780;9.216;2023-05-07T08:04:42;19.30;99.90
1704;DHT22;849;48.780;9.216;2023-05-07T08:07:09;19.60;99.90
1704;DHT22;849;48.780;9.216;2023-05-07T08:09:36;19.50;99.90
1704;DHT22;849;48.780;9.216;2023-05-07T08:12:02;19.60;99.90
1704;DHT22;849;48.780;9.216;2023-05-07T08:14:29;19.60;99.90
1704;DHT22;849;48.780;9.216;2023-05-07T08:16:55;19.80;99.90
1704;DHT22;849;48.780;9.216;2023-05-07T08:19:21;19.80;99.90
1704;DHT22;849;48.780;9.216;2023-05-07T08:21:47;19.80;99.90
1704;DHT22;849;48.780;9.216;2023-05-07T08:24:16;20.00;99.90
1704;DHT22;849;48.780;9.216;2023-05-07T08:26:43;20.10;99.90
1704;DHT22;849;48.780;9.216;2023-05-07T08:29:09;20.10;99.90
1704;DHT22;849;48.780;9.216;2023-05-07T08:31:34;20.20;99.90
1704;DHT22;849;48.780;9.216;2023-05-07T08:34:00;20.10;99.90
1704;DHT22;849;48.780;9.216;2023-05-07T08:36:26;20.00;99.90
1704;DHT22;849;48.780;9.216;2023-05-07T08:38:52;20.00;99.90
1704;DHT22;849;48.780;9.216;2023-05-07T08:41:18;20.20;99.90
1704;DHT22;849;48.780;9.216;2023-05-07T08:43:48;20.30;99.90
1704;DHT22;849;48.780;9.216;2023-05-07T08:46:20;20.30;99.90
1704;DHT22;849;48.780;9.216;2023-05-07T08:48:48;20.30;99.90
1704;DHT22;849;48.780;9.216;2023-05-07T08:51:19;20.20;99.90
1704;DHT22;849;48.780;9.216;2023-05-07T08:53:46;20.30;99.90
1704;DHT22;849;48.780;9.216;2023-05-07T08:56:14;20.30;99.90
1704;DHT22;849;48.780;9.216;2023-05-07T08:58:43;20.20;99.90
1704;DHT22;849;48.780;9.216;2023-05-07T09:01:12;20.50;99.90
1704;DHT22;849;48.780;9.216;2023-05-07T09:03:38;20.60;99.90
1704;DHT22;849;48.780;9.216;2023-05-07T09:06:05;20.70;99.90
1704;DHT22;849;48.780;9.216;2023-05-07T09:08:33;20.60;99.90
1704;DHT22;849;48.780;9.216;2023-05-07T09:10:58;20.80;99.90
1704;DHT22;849;48.780;9.216;2023-05-07T09:13:24;21.00;99.90
1704;DHT22;849;48.780;9.216;2023-05-07T09:15:50;21.10;99.90
1704;DHT22;849;48.780;9.216;2023-05-07T09:18:16;21.20;99.90
1704;DHT22;849;48.780;9.216;2023-05-07T09:20:41;21.30;99.90
1704;DHT22;849;48.780;9.216;2023-05-07T09:23:08;21.10;99.90
1704;DHT22;849;48.780;9.216;2023-05-07T09:25:34;21.10;99.90
1704;DHT22;849;48.780;9.216;2023-05-07T09:28:01;21.10;99.90
1704;DHT22;849;48.780;9.216;2023-05-07T09:30:29;21.10;99.90
1704;DHT22;849;48.780;9.216;2023-05-07T09:32:59;20.90;99.90
1704;DHT22;849;48.780;9.216;2023-05-07T09:35:26;20.90;99.90
1704;DHT22;849;48.780;9.216;2023-05-07T09:37:57;21.30;99.90
1704;DHT22;849;48.780;9.216;2023-05-07T09:40:24;21.50;99.90
1704;DHT22;849;48.780;9.216;2023-05-07T09:42:50;21.50;99.90
1704;DHT22;849;48.780;9.216;2023-05-07T09:45:24;21.50;99.90
1704;DHT22;849;48.780;9.216;2023-05-07T09:47:54;21.50;99.90
1704;DHT22;849;48.780;9.216;2023-05-07T09:50:25;21.40;99.90
1704;DHT22;849;48.780;9.216;2023-05-07T09:52:52;21.40;99.90
1704;DHT22;849;48.780;9.216;2023-05-07T09:55:18;21.60;99.90
1704;DHT22;849;48.780;9.216;2023-05-07T09:57:45;21.80;99.90
1704;DHT22;849;48.780;9.216;2023-05-07T10:00:12;21.90;99.90
1704;DHT22;849;48.780;9.216;2023-05-07T10:02:39;22.20;99.90
1704;DHT22;849;48.780;9.216;2023-05-07T10:05:12;22.20;99.90
1704;DHT22;849;48.780;9.216;2023-05-07T10:07:40;22.40;99.90
1704;DHT22;849;48.780;9.216;2023-05-07T10:10:06;22.50;99.90
1704;DHT22;849;48.780;9.216;2023-05-07T10:12:32;22.30;99.90
1704;DHT22;849;48.780;9.216;2023-05-07T10:15:09;22.30;99.90
1704;DHT22;849;48.780;9.216;2023-05-07T10:17:39;22.40;99.90
1704;DHT22;849;48.780;9.216;2023-05-07T10:20:06;22.50;99.90
1704;DHT22;849;48.780;9.216;2023-05-07T10:22:48;22.40;99.90
1704;DHT22;849;48.780;9.216;2023-05-07T10:25:23;22.40;99.90
1704;DHT22;849;48.780;9.216;2023-05-07T10:27:52;22.30;99.90
1704;DHT22;849;48.780;9.216;2023-05-07T10:32:53;22.90;99.90
1704;DHT22;849;48.780;9.216;2023-05-07T10:35:29;22.90;99.90
1704;DHT22;849;48.780;9.216;2023-05-07T10:37:56;23.00;99.90
1704;DHT22;849;48.780;9.216;2023-05-07T10:40:22;23.10;99.90
1704;DHT22;849;48.780;9.216;2023-05-07T10:42:55;23.10;99.20
1704;DHT22;849;48.780;9.216;2023-05-07T10:45:21;23.40;99.10
1704;DHT22;849;48.780;9.216;2023-05-07T10:48:14;23.50;99.70
1704;DHT22;849;48.780;9.216;2023-05-07T10:50:42;23.30;99.30
1704;DHT22;849;48.780;9.216;2023-05-07T10:55:47;23.70;94.60
1704;DHT22;849;48.780;9.216;2023-05-07T10:58:26;23.80;96.00
1704;DHT22;849;48.780;9.216;2023-05-07T11:01:02;23.80;94.70
1704;DHT22;849;48.780;9.216;2023-05-07T11:03:28;23.70;94.40
1704;DHT22;849;48.780;9.216;2023-05-07T11:06:15;24.00;93.20
1704;DHT22;849;48.780;9.216;2023-05-07T11:08:57;24.10;94.30
1704;DHT22;849;48.780;9.216;2023-05-07T11:11:48;24.10;93.10
1704;DHT22;849;48.780;9.216;2023-05-07T11:17:07;24.40;92.00
1704;DHT22;849;48.780;9.216;2023-05-07T11:19:55;24.40;91.40
1704;DHT22;849;48.780;9.216;2023-05-07T11:25:02;24.30;91.40
1704;DHT22;849;48.780;9.216;2023-05-07T11:27:29;24.50;90.90
1704;DHT22;849;48.780;9.216;2023-05-07T11:29:56;24.70;92.00
1704;DHT22;849;48.780;9.216;2023-05-07T11:32:27;24.80;88.30
1704;DHT22;849;48.780;9.216;2023-05-07T11:34:57;24.60;90.00
1704;DHT22;849;48.780;9.216;2023-05-07T11:37:25;24.60;90.00
1704;DHT22;849;48.780;9.216;2023-05-07T11:40:02;24.70;91.10
1704;DHT22;849;48.780;9.216;2023-05-07T11:42:33;24.30;90.90
1704;DHT22;849;48.780;9.216;2023-05-07T11:45:00;24.10;92.30
1704;DHT22;849;48.780;9.216;2023-05-07T11:47:25;24.30;92.10
1704;DHT22;849;48.780;9.216;2023-05-07T11:49:53;23.90;91.80
1704;DHT22;849;48.780;9.216;2023-05-07T11:52:20;23.70;91.50
1704;DHT22;849;48.780;9.216;2023-05-07T11:54:56;23.50;92.10
1704;DHT22;849;48.780;9.216;2023-05-07T11:57:23;23.30;92.80
1704;DHT22;849;48.780;9.216;2023-05-07T11:59:53;23.30;92.20
1704;DHT22;849;48.780;9.216;2023-05-07T12:02:19;23.30;93.80
1704;DHT22;849;48.780;9.216;2023-05-07T12:04:44;23.30;93.00
1704;DHT22;849;48.780;9.216;2023-05-07T12:07:14;23.30;92.80
1704;DHT22;849;48.780;9.216;2023-05-07T12:09:44;23.40;92.20
1704;DHT22;849;48.780;9.216;2023-05-07T12:12:10;23.40;92.00
1704;DHT22;849;48.780;9.216;2023-05-07T12:14:40;23.20;91.80
1704;DHT22;849;48.780;9.216;2023-05-07T12:17:07;23.00;91.60
1704;DHT22;849;48.780;9.216;2023-05-07T12:19:38;22.90;92.00
1704;DHT22;849;48.780;9.216;2023-05-07T12:22:04;22.60;91.10
1704;DHT22;849;48.780;9.216;2023-05-07T12:24:56;22.60;91.60
1704;DHT22;849;48.780;9.216;2023-05-07T12:27:21;22.60;92.00
1704;DHT22;849;48.780;9.216;2023-05-07T12:29:48;22.60;96.90
1704;DHT22;849;48.780;9.216;2023-05-07T12:32:16;22.80;99.90
1704;DHT22;849;48.780;9.216;2023-05-07T12:34:43;22.70;99.90
1704;DHT22;849;48.780;9.216;2023-05-07T12:37:08;22.20;99.90
1704;DHT22;849;48.780;9.216;2023-05-07T12:39:34;22.20;99.90
1704;DHT22;849;48.780;9.216;2023-05-07T12:41:59;22.20;99.90
1704;DHT22;849;48.780;9.216;2023-05-07T12:44:29;22.20;99.90
1704;DHT22;849;48.780;9.216;2023-05-07T12:46:55;22.10;99.90
1704;DHT22;849;48.780;9.216;2023-05-07T12:49:21;21.30;99.90
1704;DHT22;849;48.780;9.216;2023-05-07T12:51:47;20.20;99.90
1704;DHT22;849;48.780;9.216;2023-05-07T12:54:27;20.00;99.90
1704;DHT22;849;48.780;9.216;2023-05-07T12:57:00;20.20;99.90
1704;DHT22;849;48.780;9.216;2023-05-07T13:01:58;20.00;99.90
1704;DHT22;849;48.780;9.216;2023-05-07T13:04:25;20.00;99.90
1704;DHT22;849;48.780;9.216;2023-05-07T13:06:51;19.90;99.90
1704;DHT22;849;48.780;9.216;2023-05-07T13:09:16;19.80;99.90
1704;DHT22;849;48.780;9.216;2023-05-07T13:11:42;19.70;99.90
1704;DHT22;849;48.780;9.216;2023-05-07T13:14:07;19.50;99.90
1704;DHT22;849;48.780;9.216;2023-05-07T13:16:33;19.40;99.90
1704;DHT22;849;48.780;9.216;2023-05-07T13:18:59;19.30;99.90
1704;DHT22;849;48.780;9.216;2023-05-07T13:21:24;19.10;99.90
1704;DHT22;849;48.780;9.216;2023-05-07T13:23:50;18.80;99.90
1704;DHT22;849;48.780;9.216;2023-05-07T13:26:16;18.70;99.90
1704;DHT22;849;48.780;9.216;2023-05-07T13:28:42;18.80;99.90
1704;DHT22;849;48.780;9.216;2023-05-07T13:31:09;18.90;99.90
1704;DHT22;849;48.780;9.216;2023-05-07T13:33:34;18.90;99.90
1704;DHT22;849;48.780;9.216;2023-05-07T13:36:01;19.00;99.90
1704;DHT22;849;48.780;9.216;2023-05-07T13:38:29;19.00;99.90
1704;DHT22;849;48.780;9.216;2023-05-07T13:40:55;19.10;99.90
1704;DHT22;849;48.780;9.216;2023-05-07T13:43:20;19.10;99.90
1704;DHT22;849;48.780;9.216;2023-05-07T13:45:46;19.10;99.90
1704;DHT22;849;48.780;9.216;2023-05-07T13:48:11;19.00;99.90
1704;DHT22;849;48.780;9.216;2023-05-07T13:50:37;18.90;99.90
1704;DHT22;849;48.780;9.216;2023-05-07T13:53:02;18.90;99.90
1704;DHT22;849;48.780;9.216;2023-05-07T13:55:29;18.80;99.90
1704;DHT22;849;48.780;9.216;2023-05-07T13:57:59;18.70;99.90
1704;DHT22;849;48.780;9.216;2023-05-07T14:00:26;18.70;99.90
1704;DHT22;849;48.780;9.216;2023-05-07T14:02:53;18.70;99.90
1704;DHT22;849;48.780;9.216;2023-05-07T14:05:19;18.80;99.90
1704;DHT22;849;48.780;9.216;2023-05-07T14:07:44;19.00;99.90
1704;DHT22;849;48.780;9.216;2023-05-07T14:10:10;18.70;99.90
1704;DHT22;849;48.780;9.216;2023-05-07T14:12:36;18.40;99.90
1704;DHT22;849;48.780;9.216;2023-05-07T14:15:02;18.40;99.90
1704;DHT22;849;48.780;9.216;2023-05-07T14:17:28;18.30;99.90
1704;DHT22;849;48.780;9.216;2023-05-07T14:19:54;18.20;99.90
1704;DHT22;849;48.780;9.216;2023-05-07T14:22:21;18.20;99.90
1704;DHT22;849;48.780;9.216;2023-05-07T14:24:48;18.20;99.90
1704;DHT22;849;48.780;9.216;2023-05-07T14:27:13;18.30;99.90
1704;DHT22;849;48.780;9.216;2023-05-07T14:29:39;18.20;99.90
1704;DHT22;849;48.780;9.216;2023-05-07T14:32:05;18.30;99.90
1704;DHT22;849;48.780;9.216;2023-05-07T14:34:31;18.20;99.90
1704;DHT22;849;48.780;9.216;2023-05-07T14:36:57;18.10;99.90
1704;DHT22;849;48.780;9.216;2023-05-07T14:39:23;18.20;99.90
1704;DHT22;849;48.780;9.216;2023-05-07T14:41:49;18.20;99.90
1704;DHT22;849;48.780;9.216;2023-05-07T14:44:14;18.20;99.90
1704;DHT22;849;48.780;9.216;2023-05-07T14:46:40;18.20;99.90
1704;DHT22;849;48.780;9.216;2023-05-07T14:49:06;18.30;99.90
1704;DHT22;849;48.780;9.216;2023-05-07T14:51:32;18.20;99.90
1704;DHT22;849;48.780;9.216;2023-05-07T14:53:58;18.40;99.90
1704;DHT22;849;48.780;9.216;2023-05-07T14:56:24;18.50;99.90
1704;DHT22;849;48.780;9.216;2023-05-07T14:58:50;18.70;99.90
1704;DHT22;849;48.780;9.216;2023-05-07T15:01:15;18.70;99.90
1704;DHT22;849;48.780;9.216;2023-05-07T15:03:41;18.60;99.90
1704;DHT22;849;48.780;9.216;2023-05-07T15:06:07;18.60;99.90
1704;DHT22;849;48.780;9.216;2023-05-07T15:08:32;18.80;99.90
1704;DHT22;849;48.780;9.216;2023-05-07T15:10:58;18.90;99.90
1704;DHT22;849;48.780;9.216;2023-05-07T15:13:24;19.10;99.90
1704;DHT22;849;48.780;9.216;2023-05-07T15:15:49;19.10;99.90
1704;DHT22;849;48.780;9.216;2023-05-07T15:18:15;19.10;99.90
1704;DHT22;849;48.780;9.216;2023-05-07T15:20:41;19.20;99.90
1704;DHT22;849;48.780;9.216;2023-05-07T15:23:08;19.40;99.90
1704;DHT22;849;48.780;9.216;2023-05-07T15:25:38;19.30;99.90
1704;DHT22;849;48.780;9.216;2023-05-07T15:28:04;19.20;99.90
1704;DHT22;849;48.780;9.216;2023-05-07T15:30:29;19.40;99.90
1704;DHT22;849;48.780;9.216;2023-05-07T15:32:55;19.50;99.90
1704;DHT22;849;48.780;9.216;2023-05-07T15:35:21;19.00;99.90
1704;DHT22;849;48.780;9.216;2023-05-07T15:37:48;18.80;99.90
1704;DHT22;849;48.780;9.216;2023-05-07T15:40:17;19.00;99.90
1704;DHT22;849;48.780;9.216;2023-05-07T15:42:45;19.40;99.90
1704;DHT22;849;48.780;9.216;2023-05-07T15:45:11;19.60;99.90
1704;DHT22;849;48.780;9.216;2023-05-07T15:47:37;19.60;99.90
1704;DHT22;849;48.780;9.216;2023-05-07T15:50:03;19.80;99.90
1704;DHT22;849;48.780;9.216;2023-05-07T15:52:29;19.90;99.90
1704;DHT22;849;48.780;9.216;2023-05-07T15:54:56;19.90;99.90
1704;DHT22;849;48.780;9.216;2023-05-07T15:57:22;19.80;99.90
1704;DHT22;849;48.780;9.216;2023-05-07T15:59:48;19.70;99.90
1704;DHT22;849;48.780;9.216;2023-05-07T16:02:13;19.80;99.90
1704;DHT22;849;48.780;9.216;2023-05-07T16:04:39;19.90;99.90
1704;DHT22;849;48.780;9.216;2023-05-07T16:07:05;19.70;99.90
1704;DHT22;849;48.780;9.216;2023-05-07T16:09:31;19.90;99.90
1704;DHT22;849;48.780;9.216;2023-05-07T16:11:57;19.90;99.90
1704;DHT22;849;48.780;9.216;2023-05-07T16:14:22;19.90;99.90
1704;DHT22;849;48.780;9.216;2023-05-07T16:16:48;20.00;99.90
1704;DHT22;849;48.780;9.216;2023-05-07T16:19:14;20.00;99.90
1704;DHT22;849;48.780;9.216;2023-05-07T16:21:40;20.00;99.90
1704;DHT22;849;48.780;9.216;2023-05-07T16:24:06;19.60;99.90
1704;DHT22;849;48.780;9.216;2023-05-07T16:26:32;19.30;99.90
1704;DHT22;849;48.780;9.216;2023-05-07T16:28:59;19.30;99.90